createdAt,value
2023-05-06T00:02:17.416Z,12.80
2023-05-06T00:04:45.379Z,12.80
2023-05-06T00:07:13.339Z,12.80
2023-05-06T00:09:41.244Z,12.90
2023-05-06T00:12:09.140Z,13.00
2023-05-06T00:14:38.516Z,13.00
2023-05-06T00:17:06.525Z,12.80
2023-05-06T00:19:34.551Z,12.80
2023-05-06T00:22:02.444Z,12.70
2023-05-06T00:24:30.728Z,12.60
2023-05-06T00:26:58.609Z,12.50
2023-05-06T00:29:26.543Z,12.60
2023-05-06T00:31:55.834Z,12.70
2023-05-06T00:34:23.795Z,12.80
2023-05-06T00:36:51.718Z,12.90
2023-05-06T00:39:19.625Z,13.00
2023-05-06T00:41:47.709Z,12.90
2023-05-06T00:44:15.719Z,12.90
2023-05-06T00:46:44.327Z,12.90
2023-05-06T00:49:14.139Z,12.90
2023-05-06T00:51:42.091Z,12.90
2023-05-06T00:54:10.361Z,13.00
2023-05-06T00:56:38.413Z,13.20
2023-05-06T00:59:06.541Z,13.30
2023-05-06T01:01:34.978Z,13.20
2023-05-06T01:04:03.022Z,13.20
2023-05-06T01:06:42.152Z,13.10
2023-05-06T01:09:17.966Z,12.90
2023-05-06T01:11:48.925Z,12.80
2023-05-06T01:14:24.239Z,12.60
2023-05-06T01:16:55.950Z,12.50
2023-05-06T01:19:46.569Z,12.40
2023-05-06T01:22:17.100Z,12.40
2023-05-06T01:24:47.669Z,12.30
2023-05-06T01:27:16.748Z,12.30
2023-05-06T01:29:47.284Z,12.30
2023-05-06T01:32:33.935Z,12.20
2023-05-06T01:35:10.480Z,12.20
2023-05-06T01:37:49.229Z,12.10
2023-05-06T01:40:19.518Z,12.00
2023-05-06T01:42:50.837Z,11.90
2023-05-06T01:45:20.890Z,11.80
2023-05-06T01:47:49.471Z,11.70
2023-05-06T01:50:17.680Z,11.80
2023-05-06T01:52:45.538Z,11.80
2023-05-06T01:55:13.619Z,11.90
2023-05-06T01:57:42.945Z,12.10
2023-05-06T02:00:11.706Z,12.30
2023-05-06T02:02:39.718Z,12.40
2023-05-06T02:05:09.050Z,12.40
2023-05-06T02:07:37.090Z,12.30
2023-05-06T02:10:05.962Z,12.20
2023-05-06T02:12:33.828Z,12.10
2023-05-06T02:15:04.071Z,12.10
2023-05-06T02:17:31.939Z,12.00
2023-05-06T02:20:00.654Z,11.90
2023-05-06T02:22:28.575Z,11.80
2023-05-06T02:24:56.669Z,11.80
2023-05-06T02:27:24.732Z,11.80
2023-05-06T02:29:52.620Z,11.80
2023-05-06T02:32:21.915Z,11.80
2023-05-06T02:34:53.250Z,11.80
2023-05-06T02:37:21.318Z,11.80
2023-05-06T02:39:49.197Z,11.80
2023-05-06T02:42:17.306Z,11.80
2023-05-06T02:44:45.241Z,11.60
2023-05-06T02:47:16.441Z,11.50
2023-05-06T02:49:46.905Z,11.30
2023-05-06T02:52:14.768Z,11.20
2023-05-06T02:54:42.761Z,11.20
2023-05-06T02:57:10.750Z,11.10
2023-05-06T02:59:38.748Z,11.20
2023-05-06T03:02:06.725Z,11.20
2023-05-06T03:04:34.869Z,11.20
2023-05-06T03:07:04.187Z,11.30
2023-05-06T03:09:32.096Z,11.20
2023-05-06T03:12:00.145Z,11.20
2023-05-06T03:14:28.138Z,11.00
2023-05-06T03:16:56.149Z,11.00
2023-05-06T03:19:24.154Z,10.90
2023-05-06T03:21:52.014Z,11.00
2023-05-06T03:24:21.366Z,10.90
2023-05-06T03:26:49.244Z,10.90
2023-05-06T03:29:17.236Z,10.90
2023-05-06T03:31:45.173Z,11.00
2023-05-06T03:34:13.221Z,11.00
2023-05-06T03:36:41.259Z,11.00
2023-05-06T03:39:09.487Z,11.00
2023-05-06T03:41:38.745Z,10.90
2023-05-06T03:44:06.928Z,10.70
2023-05-06T03:46:34.943Z,10.70
2023-05-06T03:49:03.121Z,10.60
2023-05-06T03:51:31.726Z,10.70
2023-05-06T03:53:59.853Z,10.70
2023-05-06T03:56:27.755Z,10.80
2023-05-06T03:58:57.101Z,10.80
2023-05-06T04:01:25.103Z,10.90
2023-05-06T04:03:54.530Z,10.90
2023-05-06T04:06:22.618Z,10.90
2023-05-06T04:08:50.625Z,10.90
2023-05-06T04:11:18.936Z,10.90
2023-05-06T04:13:46.931Z,10.70
2023-05-06T04:16:16.224Z,10.70
2023-05-06T04:18:46.067Z,10.80
2023-05-06T04:21:13.963Z,11.00
2023-05-06T04:23:42.721Z,10.90
2023-05-06T04:26:11.078Z,10.80
2023-05-06T04:28:39.049Z,10.80
2023-05-06T04:31:08.453Z,10.80
2023-05-06T04:33:37.813Z,10.80
2023-05-06T04:36:06.675Z,10.90
2023-05-06T04:38:35.668Z,10.90
2023-05-06T04:41:03.943Z,10.90
2023-05-06T04:43:32.685Z,11.00
2023-05-06T04:46:01.573Z,11.00
2023-05-06T04:48:29.476Z,11.00
2023-05-06T04:50:58.789Z,11.00
2023-05-06T04:53:26.707Z,10.90
2023-05-06T04:55:56.500Z,11.00
2023-05-06T04:58:24.522Z,11.10
2023-05-06T05:00:52.518Z,11.20
2023-05-06T05:03:20.611Z,11.40
2023-05-06T05:05:48.551Z,11.60
2023-05-06T05:08:18.190Z,11.80
2023-05-06T05:10:49.713Z,12.00
2023-05-06T05:13:18.102Z,12.20
2023-05-06T05:15:46.047Z,12.30
2023-05-06T05:18:13.984Z,12.40
2023-05-06T05:20:41.972Z,12.40
2023-05-06T05:23:09.972Z,12.50
2023-05-06T05:25:39.355Z,12.60
2023-05-06T05:28:07.307Z,12.70
2023-05-06T05:30:35.269Z,12.80
2023-05-06T05:33:03.507Z,13.10
2023-05-06T05:35:31.699Z,13.20
2023-05-06T05:37:59.774Z,13.20
2023-05-06T05:40:28.128Z,13.20
2023-05-06T05:42:57.417Z,13.40
2023-05-06T05:45:25.311Z,13.50
2023-05-06T05:47:54.063Z,13.60
2023-05-06T05:50:22.166Z,13.60
2023-05-06T05:52:50.111Z,13.60
2023-05-06T05:55:18.154Z,13.80
2023-05-06T05:57:46.053Z,13.90
2023-05-06T06:00:16.353Z,14.00
2023-05-06T06:02:44.363Z,14.00
2023-05-06T06:05:12.393Z,14.10
2023-05-06T06:07:41.764Z,14.10
2023-05-06T06:10:10.216Z,14.20
2023-05-06T06:12:38.311Z,14.20
2023-05-06T06:15:07.300Z,14.30
2023-05-06T06:17:36.874Z,14.40
2023-05-06T06:20:05.964Z,14.40
2023-05-06T06:22:34.045Z,14.40
2023-05-06T06:25:02.016Z,14.50
2023-05-06T06:27:30.072Z,14.60
2023-05-06T06:29:57.945Z,14.60
2023-05-06T06:32:26.392Z,14.70
2023-05-06T06:34:55.644Z,14.90
2023-05-06T06:37:23.487Z,15.00
2023-05-06T06:39:51.373Z,15.00
2023-05-06T06:42:19.303Z,15.10
2023-05-06T06:44:47.263Z,15.10
2023-05-06T06:47:15.153Z,15.20
2023-05-06T06:49:43.101Z,15.30
2023-05-06T06:52:12.362Z,15.40
2023-05-06T06:54:40.235Z,15.40
2023-05-06T06:57:08.197Z,15.50
2023-05-06T06:59:36.327Z,15.60
2023-05-06T07:02:04.462Z,15.60
2023-05-06T07:04:32.386Z,15.70
2023-05-06T07:07:00.559Z,15.80
2023-05-06T07:09:29.735Z,15.90
2023-05-06T07:11:58.589Z,16.00
2023-05-06T07:14:26.684Z,16.20
2023-05-06T07:16:54.710Z,16.20
2023-05-06T07:19:22.653Z,16.30
2023-05-06T07:21:50.688Z,16.20
2023-05-06T07:24:19.036Z,16.30
2023-05-06T07:26:48.379Z,16.40
2023-05-06T07:29:16.357Z,16.50
2023-05-06T07:31:44.522Z,16.60
2023-05-06T07:34:12.825Z,16.60
2023-05-06T07:36:43.220Z,16.70
2023-05-06T07:39:11.395Z,16.70
2023-05-06T07:41:39.503Z,16.90
2023-05-06T07:44:08.792Z,17.00
2023-05-06T07:46:36.836Z,17.10
2023-05-06T07:49:07.111Z,17.30
2023-05-06T07:51:35.316Z,17.40
2023-05-06T07:54:03.252Z,17.40
2023-05-06T07:56:31.129Z,17.60
2023-05-06T07:58:59.361Z,17.60
2023-05-06T08:01:29.607Z,17.80
2023-05-06T08:03:57.626Z,17.90
2023-05-06T08:06:29.693Z,18.10
2023-05-06T08:08:57.652Z,18.20
2023-05-06T08:11:25.731Z,18.40
2023-05-06T08:13:53.794Z,18.70
2023-05-06T08:16:23.838Z,18.80
2023-05-06T08:18:54.525Z,19.10
2023-05-06T08:21:23.633Z,19.30
2023-05-06T08:23:52.639Z,19.60
2023-05-06T08:26:21.406Z,19.90
2023-05-06T08:28:49.448Z,20.20
2023-05-06T08:31:17.561Z,20.20
2023-05-06T08:33:45.484Z,20.00
2023-05-06T08:36:14.759Z,19.80
2023-05-06T08:38:48.976Z,19.70
2023-05-06T08:41:19.218Z,19.50
2023-05-06T08:43:48.192Z,19.80
2023-05-06T08:46:16.792Z,19.90
2023-05-06T08:48:44.951Z,19.80
2023-05-06T08:51:17.534Z,19.60
2023-05-06T08:53:51.669Z,19.30
2023-05-06T08:56:21.195Z,19.10
2023-05-06T08:58:52.477Z,19.20
2023-05-06T09:01:25.007Z,19.40
2023-05-06T09:03:53.275Z,19.70
2023-05-06T09:06:22.790Z,19.80
2023-05-06T09:08:52.988Z,19.90
2023-05-06T09:11:23.364Z,20.10
2023-05-06T09:13:52.826Z,20.50
2023-05-06T09:16:31.283Z,20.60
2023-05-06T09:19:00.467Z,20.50
2023-05-06T09:21:34.733Z,20.30
2023-05-06T09:24:04.314Z,20.10
2023-05-06T09:26:32.957Z,19.90
2023-05-06T09:29:01.617Z,20.00
2023-05-06T09:31:29.990Z,20.20
2023-05-06T09:34:01.969Z,20.40
2023-05-06T09:36:32.972Z,20.40
2023-05-06T09:39:02.283Z,20.50
2023-05-06T09:41:30.369Z,20.70
2023-05-06T09:43:59.188Z,20.80
2023-05-06T09:46:27.954Z,20.80
2023-05-06T09:48:57.966Z,20.80
2023-05-06T09:51:28.932Z,20.80
2023-05-06T09:53:58.283Z,20.80
2023-05-06T09:56:28.843Z,20.90
2023-05-06T09:58:57.709Z,21.00
2023-05-06T10:01:36.067Z,21.00
2023-05-06T10:04:09.376Z,21.20
2023-05-06T10:06:42.991Z,21.30
2023-05-06T10:09:12.021Z,21.30
2023-05-06T10:11:42.175Z,21.10
2023-05-06T10:14:11.043Z,21.20
2023-05-06T10:16:40.503Z,21.20
2023-05-06T10:19:09.675Z,21.40
2023-05-06T10:21:42.393Z,21.70
2023-05-06T10:24:13.997Z,21.60
2023-05-06T10:26:46.686Z,21.60
2023-05-06T10:29:15.113Z,21.90
2023-05-06T10:31:49.288Z,21.80
2023-05-06T10:34:21.085Z,21.70
2023-05-06T10:36:50.593Z,21.70
2023-05-06T10:39:19.020Z,21.60
2023-05-06T10:41:49.087Z,21.80
2023-05-06T10:44:17.262Z,22.20
2023-05-06T10:46:58.656Z,22.50
2023-05-06T10:49:26.586Z,22.50
2023-05-06T10:52:13.508Z,22.50
2023-05-06T10:54:52.157Z,22.40
2023-05-06T10:57:26.488Z,22.20
2023-05-06T10:59:58.782Z,22.30
2023-05-06T11:02:27.235Z,22.30
2023-05-06T11:05:01.729Z,22.30
2023-05-06T11:07:29.715Z,22.40
2023-05-06T11:09:59.125Z,22.40
2023-05-06T11:12:49.129Z,22.50
2023-05-06T11:15:35.737Z,22.10
2023-05-06T11:18:42.448Z,21.90
2023-05-06T11:21:38.922Z,21.50
2023-05-06T11:24:14.021Z,21.60
2023-05-06T11:26:43.315Z,21.70
2023-05-06T11:29:12.634Z,21.40
2023-05-06T11:31:42.582Z,21.30
2023-05-06T11:34:13.429Z,21.20
2023-05-06T11:36:49.993Z,21.00
2023-05-06T11:39:19.589Z,21.00
2023-05-06T11:41:47.609Z,21.20
2023-05-06T11:44:30.199Z,21.20
2023-05-06T11:46:59.522Z,21.20
2023-05-06T11:49:27.981Z,21.10
2023-05-06T11:51:58.112Z,21.20
2023-05-06T11:54:28.229Z,21.10
2023-05-06T11:56:58.035Z,21.10
2023-05-06T11:59:34.870Z,21.10
2023-05-06T12:02:04.623Z,21.20
2023-05-06T12:04:39.781Z,21.20
2023-05-06T12:07:08.994Z,21.30
2023-05-06T12:09:37.885Z,21.40
2023-05-06T12:12:07.177Z,21.40
2023-05-06T12:14:37.137Z,21.40
2023-05-06T12:17:05.877Z,21.40
2023-05-06T12:19:33.999Z,21.40
2023-05-06T12:22:16.039Z,21.40
2023-05-06T12:24:44.033Z,21.40
2023-05-06T12:27:12.069Z,21.40
2023-05-06T12:29:53.270Z,21.50
2023-05-06T12:32:21.134Z,21.50
2023-05-06T12:34:49.033Z,21.50
2023-05-06T12:37:26.035Z,21.40
2023-05-06T12:39:55.178Z,21.50
2023-05-06T12:42:25.695Z,21.60
2023-05-06T12:44:55.046Z,21.50
2023-05-06T12:47:24.131Z,21.40
2023-05-06T12:49:53.196Z,21.30
2023-05-06T12:52:22.396Z,21.20
2023-05-06T12:54:51.863Z,21.20
2023-05-06T12:57:20.030Z,21.40
2023-05-06T12:59:48.346Z,21.60
2023-05-06T13:02:17.928Z,21.90
2023-05-06T13:04:47.052Z,22.10
2023-05-06T13:07:15.672Z,22.10
2023-05-06T13:09:44.537Z,22.10
2023-05-06T13:12:13.056Z,22.10
2023-05-06T13:14:40.960Z,22.30
2023-05-06T13:17:09.157Z,22.40
2023-05-06T13:19:38.546Z,22.60
2023-05-06T13:22:06.697Z,22.80
2023-05-06T13:24:34.549Z,22.90
2023-05-06T13:27:02.450Z,23.00
2023-05-06T13:29:30.535Z,22.80
2023-05-06T13:31:58.630Z,23.00
2023-05-06T13:34:27.084Z,23.10
2023-05-06T13:36:56.720Z,23.10
2023-05-06T13:39:25.081Z,23.10
2023-05-06T13:41:54.113Z,23.10
2023-05-06T13:44:22.616Z,23.40
2023-05-06T13:46:50.774Z,23.40
2023-05-06T13:49:20.755Z,23.30
2023-05-06T13:51:48.988Z,23.30
2023-05-06T13:54:18.285Z,23.30
2023-05-06T13:56:46.235Z,23.60
2023-05-06T13:59:14.124Z,23.60
2023-05-06T14:01:43.052Z,23.60
2023-05-06T14:04:11.299Z,23.50
2023-05-06T14:06:39.266Z,23.30
2023-05-06T14:09:07.189Z,23.10
2023-05-06T14:11:36.656Z,22.80
2023-05-06T14:14:05.185Z,22.70
2023-05-06T14:16:33.801Z,22.50
2023-05-06T14:19:01.876Z,22.40
2023-05-06T14:21:29.770Z,22.50
2023-05-06T14:23:57.751Z,22.90
2023-05-06T14:26:26.768Z,23.20
2023-05-06T14:28:56.086Z,23.60
2023-05-06T14:31:24.695Z,24.00
2023-05-06T14:33:52.731Z,24.40
2023-05-06T14:36:21.377Z,24.50
2023-05-06T14:38:49.285Z,24.50
2023-05-06T14:41:17.220Z,24.50
2023-05-06T14:43:45.330Z,24.30
2023-05-06T14:46:15.931Z,24.20
2023-05-06T14:48:45.339Z,24.30
2023-05-06T14:51:13.260Z,24.00
2023-05-06T14:53:44.461Z,23.50
2023-05-06T14:56:12.329Z,23.20
2023-05-06T14:58:40.340Z,23.20
2023-05-06T15:01:08.503Z,23.40
2023-05-06T15:03:37.986Z,23.80
2023-05-06T15:06:06.446Z,24.00
2023-05-06T15:08:34.432Z,23.80
2023-05-06T15:11:04.265Z,23.60
2023-05-06T15:13:33.038Z,23.50
2023-05-06T15:16:01.075Z,23.20
2023-05-06T15:18:28.983Z,23.00
2023-05-06T15:21:01.408Z,22.90
2023-05-06T15:23:29.594Z,22.80
2023-05-06T15:25:58.126Z,22.70
2023-05-06T15:28:26.127Z,22.60
2023-05-06T15:30:54.175Z,22.50
2023-05-06T15:33:22.223Z,22.30
2023-05-06T15:35:50.393Z,22.10
2023-05-06T15:38:19.772Z,22.00
2023-05-06T15:40:51.958Z,21.90
2023-05-06T15:43:23.695Z,21.70
2023-05-06T15:45:52.191Z,21.60
2023-05-06T15:48:22.904Z,21.60
2023-05-06T15:50:51.127Z,21.60
2023-05-06T15:53:21.546Z,21.60
2023-05-06T15:55:54.603Z,21.60
2023-05-06T15:58:25.300Z,21.70
2023-05-06T16:00:53.349Z,21.70
2023-05-06T16:03:21.423Z,21.60
2023-05-06T16:05:49.643Z,21.70
2023-05-06T16:08:17.560Z,21.70
2023-05-06T16:10:46.954Z,21.70
2023-05-06T16:13:14.901Z,21.90
2023-05-06T16:15:43.299Z,22.10
2023-05-06T16:18:11.532Z,22.20
2023-05-06T16:20:41.750Z,22.50
2023-05-06T16:23:09.890Z,22.60
2023-05-06T16:25:38.939Z,22.80
2023-05-06T16:28:09.387Z,23.00
2023-05-06T16:30:38.156Z,23.20
2023-05-06T16:33:06.266Z,23.40
2023-05-06T16:35:34.328Z,23.40
2023-05-06T16:38:02.238Z,23.40
2023-05-06T16:40:32.684Z,23.60
2023-05-06T16:43:01.206Z,23.60
2023-05-06T16:45:30.489Z,23.70
2023-05-06T16:47:58.577Z,23.90
2023-05-06T16:50:26.535Z,24.00
2023-05-06T16:52:55.956Z,24.20
2023-05-06T16:55:26.732Z,24.00
2023-05-06T16:57:54.793Z,23.70
2023-05-06T17:00:23.610Z,23.40
2023-05-06T17:02:52.968Z,23.10
2023-05-06T17:05:22.194Z,22.80
2023-05-06T17:07:51.153Z,22.70
2023-05-06T17:10:19.227Z,22.50
2023-05-06T17:12:47.231Z,22.40
2023-05-06T17:15:15.156Z,22.30
2023-05-06T17:17:43.218Z,22.20
2023-05-06T17:20:13.565Z,22.00
2023-05-06T17:22:41.720Z,21.90
2023-05-06T17:25:29.323Z,21.90
2023-05-06T17:27:59.330Z,21.80
2023-05-06T17:30:34.629Z,21.70
2023-05-06T17:33:02.674Z,21.50
2023-05-06T17:35:32.400Z,21.40
2023-05-06T17:38:00.324Z,21.40
2023-05-06T17:40:28.347Z,21.30
2023-05-06T17:42:56.606Z,21.20
2023-05-06T17:45:25.303Z,21.10
2023-05-06T17:47:53.391Z,21.00
2023-05-06T17:50:21.487Z,21.00
2023-05-06T17:52:52.824Z,20.90
2023-05-06T17:55:21.501Z,20.80
2023-05-06T17:57:50.230Z,20.80
2023-05-06T18:00:18.565Z,20.80
2023-05-06T18:02:46.692Z,20.70
2023-05-06T18:05:14.651Z,20.60
2023-05-06T18:07:42.469Z,20.50
2023-05-06T18:10:12.325Z,20.50
2023-05-06T18:12:40.373Z,20.40
2023-05-06T18:15:09.712Z,20.40
2023-05-06T18:17:37.922Z,20.40
2023-05-06T18:20:07.999Z,20.30
2023-05-06T18:22:35.909Z,20.20
2023-05-06T18:25:04.364Z,20.20
2023-05-06T18:27:33.698Z,20.20
2023-05-06T18:30:01.659Z,20.00
2023-05-06T18:32:29.550Z,20.00
2023-05-06T18:34:57.424Z,19.90
2023-05-06T18:37:25.587Z,19.80
2023-05-06T18:39:53.505Z,19.70
2023-05-06T18:42:22.409Z,19.50
2023-05-06T18:44:51.722Z,19.50
2023-05-06T18:47:20.292Z,19.40
2023-05-06T18:49:48.622Z,19.30
2023-05-06T18:52:17.687Z,19.20
2023-05-06T18:54:46.235Z,19.10
2023-05-06T18:57:14.513Z,19.00
2023-05-06T18:59:42.772Z,18.90
2023-05-06T19:02:12.031Z,18.80
2023-05-06T19:04:39.868Z,18.70
2023-05-06T19:07:07.979Z,18.70
2023-05-06T19:09:37.212Z,18.60
2023-05-06T19:12:05.317Z,18.50
2023-05-06T19:14:34.589Z,18.50
2023-05-06T19:17:03.881Z,18.40
2023-05-06T19:19:33.417Z,18.30
2023-05-06T19:22:02.162Z,18.30
2023-05-06T19:24:31.046Z,18.30
2023-05-06T19:26:58.924Z,18.20
2023-05-06T19:29:26.794Z,18.10
2023-05-06T19:31:54.768Z,18.10
2023-05-06T19:34:22.712Z,18.00
2023-05-06T19:36:51.979Z,18.00
2023-05-06T19:39:21.263Z,18.00
2023-05-06T19:41:49.252Z,17.80
2023-05-06T19:44:17.175Z,17.80
2023-05-06T19:46:45.166Z,17.70
2023-05-06T19:49:13.688Z,17.60
2023-05-06T19:51:45.824Z,17.60
2023-05-06T19:54:15.068Z,17.50
2023-05-06T19:56:44.718Z,17.50
2023-05-06T19:59:12.949Z,17.40
2023-05-06T20:01:40.946Z,17.40
2023-05-06T20:04:09.706Z,17.30
2023-05-06T20:06:37.690Z,17.40
2023-05-06T20:09:05.587Z,17.30
2023-05-06T20:11:34.908Z,17.30
2023-05-06T20:14:03.032Z,17.20
2023-05-06T20:16:30.960Z,17.20
2023-05-06T20:18:59.054Z,17.10
2023-05-06T20:21:27.178Z,17.10
2023-05-06T20:23:55.072Z,17.20
2023-05-06T20:26:24.952Z,17.20
2023-05-06T20:28:55.064Z,17.20
2023-05-06T20:31:23.704Z,17.20
2023-05-06T20:33:51.623Z,17.20
2023-05-06T20:36:19.564Z,17.10
2023-05-06T20:38:49.058Z,17.20
2023-05-06T20:41:17.363Z,17.10
2023-05-06T20:43:45.228Z,17.10
2023-05-06T20:46:14.624Z,17.10
2023-05-06T20:48:42.563Z,17.10
2023-05-06T20:51:10.490Z,17.10
2023-05-06T20:53:38.781Z,17.00
2023-05-06T20:56:08.008Z,17.00
2023-05-06T20:58:35.829Z,16.90
2023-05-06T21:01:04.893Z,16.80
2023-05-06T21:03:34.276Z,16.80
2023-05-06T21:06:02.311Z,16.80
2023-05-06T21:08:30.257Z,16.80
2023-05-06T21:10:58.226Z,16.80
2023-05-06T21:13:26.380Z,16.70
2023-05-06T21:15:54.703Z,16.70
2023-05-06T21:18:22.731Z,16.70
2023-05-06T21:20:52.171Z,16.60
2023-05-06T21:23:20.053Z,16.60
2023-05-06T21:25:47.924Z,16.60
2023-05-06T21:28:15.844Z,16.60
2023-05-06T21:30:43.835Z,16.50
2023-05-06T21:33:11.954Z,16.50
2023-05-06T21:35:39.897Z,16.50
2023-05-06T21:38:09.520Z,16.50
2023-05-06T21:40:37.480Z,16.50
2023-05-06T21:43:05.674Z,16.50
2023-05-06T21:45:33.585Z,16.50
2023-05-06T21:48:05.929Z,16.40
2023-05-06T21:50:34.018Z,16.40
2023-05-06T21:53:01.898Z,16.40
2023-05-06T21:55:32.353Z,16.30
2023-05-06T21:58:00.233Z,16.20
2023-05-06T22:00:28.570Z,16.20
2023-05-06T22:02:59.022Z,16.20
2023-05-06T22:05:26.977Z,16.20
2023-05-06T22:07:54.842Z,16.30
2023-05-06T22:10:22.945Z,16.20
2023-05-06T22:12:52.225Z,16.20
2023-05-06T22:15:20.298Z,16.20
2023-05-06T22:17:48.296Z,16.20
2023-05-06T22:20:17.506Z,16.20
2023-05-06T22:22:45.428Z,16.20
2023-05-06T22:25:13.962Z,16.20
2023-05-06T22:27:41.977Z,16.10
2023-05-06T22:30:13.375Z,16.10
2023-05-06T22:32:41.372Z,16.00
2023-05-06T22:35:10.175Z,15.90
2023-05-06T22:37:38.234Z,15.90
2023-05-06T22:40:07.821Z,15.80
2023-05-06T22:42:35.758Z,15.80
2023-05-06T22:45:04.208Z,15.90
2023-05-06T22:47:33.670Z,15.90
2023-05-06T22:50:01.581Z,15.90
2023-05-06T22:52:29.619Z,15.90
2023-05-06T22:54:57.523Z,15.90
2023-05-06T22:57:25.698Z,15.90
2023-05-06T22:59:53.620Z,15.80
2023-05-06T23:02:21.658Z,15.80
2023-05-06T23:04:50.993Z,15.90
2023-05-06T23:07:18.907Z,15.80
2023-05-06T23:09:46.807Z,15.90
2023-05-06T23:12:14.721Z,15.80
2023-05-06T23:14:42.926Z,15.90
2023-05-06T23:17:10.924Z,15.80
2023-05-06T23:19:38.855Z,15.80
2023-05-06T23:22:08.096Z,15.80
2023-05-06T23:24:36.401Z,15.80
2023-05-06T23:27:04.377Z,15.80
2023-05-06T23:29:33.418Z,15.80
2023-05-06T23:32:01.429Z,15.70
2023-05-06T23:34:29.362Z,15.70
2023-05-06T23:36:57.300Z,15.70
2023-05-06T23:39:26.549Z,15.70
2023-05-06T23:41:54.478Z,15.60
2023-05-06T23:44:22.566Z,15.60
2023-05-06T23:46:50.500Z,15.60
2023-05-06T23:49:18.477Z,15.60
2023-05-06T23:51:46.340Z,15.60
2023-05-06T23:54:14.174Z,15.50
2023-05-06T23:56:43.452Z,15.50
2023-05-06T23:59:11.416Z,15.50
